Time,TemperatureF,DewpointF,PressureIn,WindDirection,WindDirectionDegrees,WindSpeedMPH,WindSpeedGustMPH,Humidity,HourlyPrecipIn,Conditions,Clouds,dailyrainin,SolarRadiationWatts/m^2,SoftwareType,DateUTC
2013-02-16 00:02:00,41.4,21.0,30.34,NNE,24,0.0,3.0,44,0.00,,,0.00,0,weatherlink.com 1.10,2013-02-16 07:02:00,
2013-02-16 00:17:00,40.9,21.0,30.34,NNE,24,0.0,1.0,46,0.00,,,0.00,0,weatherlink.com 1.10,2013-02-16 07:17:00,
2013-02-16 00:32:00,40.8,21.0,30.35,NNE,24,1.0,2.0,46,0.00,,,0.00,0,weatherlink.com 1.10,2013-02-16 07:32:00,
2013-02-16 00:47:00,40.7,21.0,30.35,NNE,24,0.0,3.0,46,0.00,,,0.00,0,weatherlink.com 1.10,2013-02-16 07:47:00,
2013-02-16 01:02:00,40.5,21.0,30.36,NNE,24,1.0,2.0,46,0.00,,,0.00,0,weatherlink.com 1.10,2013-02-16 08:02:00,
2013-02-16 01:17:00,40.3,21.0,30.36,NNE,24,0.0,2.0,47,0.00,,,0.00,0,weatherlink.com 1.10,2013-02-16 08:17:00,
2013-02-16 01:33:00,40.0,21.0,30.36,NNE,24,0.0,2.0,47,0.00,,,0.00,0,weatherlink.com 1.10,2013-02-16 08:33:00,
2013-02-16 01:47:00,39.7,21.0,30.36,NNE,24,0.0,1.0,48,0.00,,,0.00,0,weatherlink.com 1.10,2013-02-16 08:47:00,
2013-02-16 02:02:00,39.4,22.0,30.36,NNE,24,0.0,0.0,49,0.00,,,0.00,0,weatherlink.com 1.10,2013-02-16 09:02:00,
2013-02-16 02:17:00,39.1,21.0,30.36,NNE,24,0.0,0.0,49,0.00,,,0.00,0,weatherlink.com 1.10,2013-02-16 09:17:00,
2013-02-16 02:33:00,38.4,21.0,30.37,NNE,24,0.0,0.0,50,0.00,,,0.00,0,weatherlink.com 1.10,2013-02-16 09:33:00,
2013-02-16 02:48:00,37.4,20.0,30.36,NNE,24,0.0,0.0,50,0.00,,,0.00,0,weatherlink.com 1.10,2013-02-16 09:48:00,
2013-02-16 03:03:00,36.5,20.0,30.36,NNE,24,0.0,0.0,52,0.00,,,0.00,0,weatherlink.com 1.10,2013-02-16 10:03:00,
2013-02-16 03:18:00,36.1,20.0,30.37,NNE,24,0.0,0.0,53,0.00,,,0.00,0,weatherlink.com 1.10,2013-02-16 10:18:00,
2013-02-16 03:33:00,36.0,20.0,30.36,NNE,24,0.0,0.0,53,0.00,,,0.00,0,weatherlink.com 1.10,2013-02-16 10:33:00,
2013-02-16 03:48:00,36.1,20.0,30.36,NNE,24,0.0,0.0,53,0.00,,,0.00,0,weatherlink.com 1.10,2013-02-16 10:48:00,
2013-02-16 04:03:00,36.2,20.0,30.36,NNE,24,0.0,0.0,53,0.00,,,0.00,0,weatherlink.com 1.10,2013-02-16 11:03:00,
2013-02-16 04:18:00,35.9,20.0,30.37,NNE,24,0.0,0.0,53,0.00,,,0.00,0,weatherlink.com 1.10,2013-02-16 11:18:00,
2013-02-16 04:33:00,35.4,20.0,30.37,NNE,24,0.0,0.0,54,0.00,,,0.00,0,weatherlink.com 1.10,2013-02-16 11:33:00,
2013-02-16 04:48:00,35.2,20.0,30.37,NNE,24,0.0,1.0,55,0.00,,,0.00,0,weatherlink.com 1.10,2013-02-16 11:48:00,
2013-02-16 05:03:00,35.0,20.0,30.38,NNE,24,0.0,1.0,55,0.00,,,0.00,0,weatherlink.com 1.10,2013-02-16 12:03:00,
2013-02-16 05:18:00,34.7,20.0,30.37,NNE,24,0.0,0.0,56,0.00,,,0.00,0,weatherlink.com 1.10,2013-02-16 12:18:00,
2013-02-16 05:33:00,34.4,20.0,30.37,NNE,24,0.0,1.0,56,0.00,,,0.00,0,weatherlink.com 1.10,2013-02-16 12:33:00,
2013-02-16 05:48:00,34.3,20.0,30.38,NNE,24,0.0,0.0,57,0.00,,,0.00,0,weatherlink.com 1.10,2013-02-16 12:48:00,
2013-02-16 06:03:00,34.0,20.0,30.37,NNE,24,0.0,0.0,58,0.00,,,0.00,0,weatherlink.com 1.10,2013-02-16 13:03:00,
2013-02-16 06:18:00,33.8,21.0,30.38,NNE,24,0.0,0.0,59,0.00,,,0.00,0,weatherlink.com 1.10,2013-02-16 13:18:00,
2013-02-16 06:33:00,33.5,20.0,30.39,NNE,24,0.0,0.0,59,0.00,,,0.00,0,weatherlink.com 1.10,2013-02-16 13:33:00,
2013-02-16 06:48:00,33.2,20.0,30.39,NNE,24,0.0,0.0,59,0.00,,,0.00,5,weatherlink.com 1.10,2013-02-16 13:48:00,
2013-02-16 07:03:00,32.9,20.0,30.39,NNE,24,0.0,0.0,60,0.00,,,0.00,14,weatherlink.com 1.10,2013-02-16 14:03:00,
2013-02-16 07:18:00,34.4,21.0,30.40,NNE,24,0.0,0.0,59,0.00,,,0.00,39,weatherlink.com 1.10,2013-02-16 14:18:00,
2013-02-16 07:34:00,37.0,22.0,30.41,NNE,24,0.0,0.0,55,0.00,,,0.00,84,weatherlink.com 1.10,2013-02-16 14:34:00,
2013-02-16 07:48:00,39.2,22.0,30.41,NNE,24,0.0,0.0,51,0.00,,,0.00,142,weatherlink.com 1.10,2013-02-16 14:48:00,
2013-02-16 08:03:00,40.7,23.0,30.42,NNE,24,0.0,0.0,49,0.00,,,0.00,202,weatherlink.com 1.10,2013-02-16 15:03:00,
2013-02-16 08:19:00,41.7,23.0,30.42,NNE,24,0.0,0.0,48,0.00,,,0.00,262,weatherlink.com 1.10,2013-02-16 15:19:00,
2013-02-16 08:33:00,42.4,24.0,30.42,NNE,24,0.0,1.0,48,0.00,,,0.00,311,weatherlink.com 1.10,2013-02-16 15:33:00,
2013-02-16 08:49:00,41.8,23.0,30.42,NNE,24,1.0,4.0,48,0.00,,,0.00,359,weatherlink.com 1.10,2013-02-16 15:49:00,
2013-02-16 09:03:00,42.8,24.0,30.43,NNE,24,3.0,3.0,47,0.00,,,0.00,401,weatherlink.com 1.10,2013-02-16 16:03:00,
2013-02-16 09:19:00,43.1,23.0,30.42,NNE,24,1.0,5.0,46,0.00,,,0.00,450,weatherlink.com 1.10,2013-02-16 16:19:00,
2013-02-16 09:49:00,45.3,24.0,30.42,NNE,24,2.0,5.0,43,0.00,,,0.00,529,weatherlink.com 1.10,2013-02-16 16:49:00,
2013-02-16 10:04:00,46.4,24.0,30.42,NNE,24,1.0,3.0,41,0.00,,,0.00,563,weatherlink.com 1.10,2013-02-16 17:04:00,
2013-02-16 10:19:00,47.9,24.0,30.41,NNE,24,1.0,3.0,39,0.00,,,0.00,598,weatherlink.com 1.10,2013-02-16 17:19:00,
2013-02-16 10:34:00,49.4,24.0,30.41,NNE,24,2.0,5.0,37,0.00,,,0.00,628,weatherlink.com 1.10,2013-02-16 17:34:00,
2013-02-16 10:48:00,50.5,23.0,30.41,NNE,24,1.0,3.0,34,0.00,,,0.00,654,weatherlink.com 1.10,2013-02-16 17:48:00,
2013-02-16 11:04:00,50.8,23.0,30.40,NNE,24,0.0,4.0,34,0.00,,,0.00,675,weatherlink.com 1.10,2013-02-16 18:04:00,
2013-02-16 11:18:00,53.3,22.0,30.39,NNE,24,2.0,4.0,30,0.00,,,0.00,696,weatherlink.com 1.10,2013-02-16 18:18:00,
2013-02-16 11:33:00,54.2,21.0,30.38,NNE,24,4.0,4.0,27,0.00,,,0.00,708,weatherlink.com 1.10,2013-02-16 18:33:00,
2013-02-16 11:49:00,54.8,19.0,30.37,NNE,25,1.0,5.0,25,0.00,,,0.00,721,weatherlink.com 1.10,2013-02-16 18:49:00,
2013-02-16 12:04:00,56.6,19.0,30.36,NNE,24,0.0,3.0,23,0.00,,,0.00,726,weatherlink.com 1.10,2013-02-16 19:04:00,
2013-02-16 12:19:00,56.6,16.0,30.35,NNE,14,1.0,3.0,20,0.00,,,0.00,733,weatherlink.com 1.10,2013-02-16 19:19:00,
2013-02-16 12:34:00,56.8,17.0,30.33,North,360,2.0,5.0,21,0.00,,,0.00,731,weatherlink.com 1.10,2013-02-16 19:34:00,
2013-02-16 12:49:00,56.9,17.0,30.31,North,360,0.0,5.0,21,0.00,,,0.00,724,weatherlink.com 1.10,2013-02-16 19:49:00,
2013-02-16 13:04:00,58.9,18.0,30.30,NNW,346,2.0,6.0,20,0.00,,,0.00,708,weatherlink.com 1.10,2013-02-16 20:04:00,
2013-02-16 13:20:00,58.3,18.0,30.29,NNW,334,2.0,7.0,21,0.00,,,0.00,696,weatherlink.com 1.10,2013-02-16 20:20:00,
2013-02-16 13:35:00,59.2,18.0,30.28,NNW,333,1.0,3.0,20,0.00,,,0.00,677,weatherlink.com 1.10,2013-02-16 20:35:00,
2013-02-16 13:50:00,59.4,18.0,30.27,NW,324,1.0,6.0,20,0.00,,,0.00,650,weatherlink.com 1.10,2013-02-16 20:50:00,
2013-02-16 14:05:00,60.5,18.0,30.26,NW,324,2.0,4.0,19,0.00,,,0.00,621,weatherlink.com 1.10,2013-02-16 21:05:00,
2013-02-16 14:20:00,60.7,18.0,30.25,NW,315,5.0,6.0,19,0.00,,,0.00,596,weatherlink.com 1.10,2013-02-16 21:20:00,
2013-02-16 14:35:00,61.6,19.0,30.25,NW,316,0.0,5.0,19,0.00,,,0.00,557,weatherlink.com 1.10,2013-02-16 21:35:00,
2013-02-16 14:50:00,61.8,18.0,30.24,NW,315,2.0,5.0,18,0.00,,,0.00,522,weatherlink.com 1.10,2013-02-16 21:50:00,
2013-02-16 15:05:00,61.4,19.0,30.23,WNW,303,0.0,4.0,19,0.00,,,0.00,478,weatherlink.com 1.10,2013-02-16 22:05:00,
2013-02-16 15:20:00,62.3,18.0,30.22,WNW,303,0.0,4.0,18,0.00,,,0.00,443,weatherlink.com 1.10,2013-02-16 22:20:00,
2013-02-16 15:35:00,62.0,18.0,30.21,WNW,303,1.0,4.0,18,0.00,,,0.00,399,weatherlink.com 1.10,2013-02-16 22:35:00,
2013-02-16 15:50:00,61.8,16.0,30.20,WNW,302,1.0,6.0,17,0.00,,,0.00,350,weatherlink.com 1.10,2013-02-16 22:50:00,
2013-02-16 16:05:00,62.1,18.0,30.20,WNW,302,0.0,6.0,18,0.00,,,0.00,308,weatherlink.com 1.10,2013-02-16 23:05:00,
2013-02-16 16:20:00,62.5,18.0,30.19,WNW,300,0.0,6.0,18,0.00,,,0.00,253,weatherlink.com 1.10,2013-02-16 23:20:00,
2013-02-16 16:35:00,62.1,18.0,30.18,WNW,300,0.0,4.0,18,0.00,,,0.00,197,weatherlink.com 1.10,2013-02-16 23:35:00,
2013-02-16 16:50:00,62.0,18.0,30.18,WNW,300,0.0,5.0,18,0.00,,,0.00,144,weatherlink.com 1.10,2013-02-16 23:50:00,
2013-02-16 17:05:00,60.8,18.0,30.17,WNW,300,1.0,4.0,19,0.00,,,0.00,88,weatherlink.com 1.10,2013-02-17 00:05:00,
2013-02-16 17:20:00,60.5,18.0,30.16,WNW,300,0.0,3.0,19,0.00,,,0.00,46,weatherlink.com 1.10,2013-02-17 00:20:00,
2013-02-16 17:36:00,59.0,18.0,30.16,WNW,300,0.0,3.0,20,0.00,,,0.00,16,weatherlink.com 1.10,2013-02-17 00:36:00,
2013-02-16 17:51:00,58.7,16.0,30.16,WNW,301,0.0,2.0,19,0.00,,,0.00,5,weatherlink.com 1.10,2013-02-17 00:51:00,
2013-02-16 18:05:00,57.9,17.0,30.16,WNW,300,0.0,1.0,20,0.00,,,0.00,0,weatherlink.com 1.10,2013-02-17 01:05:00,
2013-02-16 18:20:00,57.0,17.0,30.16,WNW,301,0.0,0.0,21,0.00,,,0.00,0,weatherlink.com 1.10,2013-02-17 01:20:00,
2013-02-16 18:35:00,55.9,16.0,30.16,WNW,301,0.0,0.0,21,0.00,,,0.00,0,weatherlink.com 1.10,2013-02-17 01:35:00,
2013-02-16 18:50:00,54.9,17.0,30.16,WNW,301,0.0,0.0,22,0.00,,,0.00,0,weatherlink.com 1.10,2013-02-17 01:50:00,
2013-02-16 19:05:00,54.3,17.0,30.16,WNW,301,0.0,0.0,23,0.00,,,0.00,0,weatherlink.com 1.10,2013-02-17 02:05:00,
2013-02-16 19:20:00,53.9,17.0,30.16,WNW,300,0.0,0.0,23,0.00,,,0.00,0,weatherlink.com 1.10,2013-02-17 02:20:00,
2013-02-16 19:35:00,53.4,16.0,30.16,WNW,300,0.0,0.0,23,0.00,,,0.00,0,weatherlink.com 1.10,2013-02-17 02:35:00,
2013-02-16 19:50:00,52.9,16.0,30.16,WNW,300,0.0,0.0,23,0.00,,,0.00,0,weatherlink.com 1.10,2013-02-17 02:50:00,
2013-02-16 20:20:00,51.4,16.0,30.16,WNW,301,0.0,0.0,24,0.00,,,0.00,0,weatherlink.com 1.10,2013-02-17 03:20:00,
2013-02-16 20:36:00,50.8,15.0,30.16,WNW,301,0.0,0.0,24,0.00,,,0.00,0,weatherlink.com 1.10,2013-02-17 03:36:00,
2013-02-16 20:50:00,50.5,15.0,30.16,WNW,301,0.0,0.0,24,0.00,,,0.00,0,weatherlink.com 1.10,2013-02-17 03:50:00,
2013-02-16 21:05:00,49.6,15.0,30.16,WNW,300,0.0,0.0,25,0.00,,,0.00,0,weatherlink.com 1.10,2013-02-17 04:05:00,
2013-02-16 21:21:00,48.1,13.0,30.16,WNW,300,0.0,1.0,24,0.00,,,0.00,0,weatherlink.com 1.10,2013-02-17 04:21:00,
2013-02-16 21:35:00,47.1,12.0,30.16,WNW,300,0.0,0.0,24,0.00,,,0.00,0,weatherlink.com 1.10,2013-02-17 04:35:00,
2013-02-16 21:50:00,46.7,12.0,30.16,WNW,301,0.0,0.0,25,0.00,,,0.00,0,weatherlink.com 1.10,2013-02-17 04:50:00,
2013-02-16 22:05:00,47.0,13.0,30.15,WNW,300,0.0,1.0,25,0.00,,,0.00,0,weatherlink.com 1.10,2013-02-17 05:05:00,
2013-02-16 22:20:00,45.1,11.0,30.15,WNW,301,0.0,2.0,25,0.00,,,0.00,0,weatherlink.com 1.10,2013-02-17 05:20:00,
2013-02-16 22:35:00,44.6,11.0,30.15,WNW,301,1.0,1.0,26,0.00,,,0.00,0,weatherlink.com 1.10,2013-02-17 05:35:00,
2013-02-16 22:50:00,44.5,11.0,30.14,WNW,301,0.0,1.0,26,0.00,,,0.00,0,weatherlink.com 1.10,2013-02-17 05:50:00,
2013-02-16 23:06:00,44.5,11.0,30.14,WNW,301,0.0,1.0,26,0.00,,,0.00,0,weatherlink.com 1.10,2013-02-17 06:06:00,
2013-02-16 23:20:00,43.6,11.0,30.14,WNW,301,1.0,1.0,26,0.00,,,0.00,0,weatherlink.com 1.10,2013-02-17 06:20:00,
2013-02-16 23:36:00,42.8,11.0,30.13,WNW,301,1.0,1.0,27,0.00,,,0.00,0,weatherlink.com 1.10,2013-02-17 06:36:00,
2013-02-16 23:51:00,42.1,11.0,30.13,WNW,301,1.0,1.0,28,0.00,,,0.00,0,weatherlink.com 1.10,2013-02-17 06:51:00,